Time;durP1;ratioP1;P1;durP2;ratioP2;P2;SDS_P1;SDS_P2;PMS_P1;PMS_P2;Temp;Humidity;BMP_temperature;BMP_pressure;BME280_temperature;BME280_humidity;BME280_pressure;Samples;Min_cycle;Max_cycle;Signal;HPM_P1;HPM_P2
2023/03/12 00:02:08;;;;;;;;;;;2.50;73.00;;;;;;5032816;28;19913;-86
2023/03/12 00:04:35;;;;;;;;;;;2.50;72.40;;;;;;5015187;28;19924;-86
2023/03/12 00:07:01;;;;;;;;;;;2.50;73.10;;;;;;5054409;28;19924;-85
2023/03/12 00:09:26;;;;;;;;;;;2.50;72.70;;;;;;5044065;28;19985;-85
2023/03/12 00:11:52;;;;;;;;;;;2.50;72.30;;;;;;5042609;28;19917;-86
2023/03/12 00:14:17;;;;;;;;;;;2.50;72.80;;;;;;5014900;28;20024;-86
2023/03/12 00:16:43;;;;;;;;;;;2.50;73.30;;;;;;5010317;28;19928;-84
2023/03/12 00:19:10;;;;;;;;;;;2.40;72.60;;;;;;5014295;28;19914;-85
2023/03/12 00:21:35;;;;;;;;;;;2.40;72.90;;;;;;5012977;28;20452;-86
2023/03/12 00:24:00;;;;;;;;;;;2.40;72.70;;;;;;5016500;28;19917;-86
2023/03/12 00:26:26;;;;;;;;;;;2.30;73.00;;;;;;5028743;28;20382;-87
2023/03/12 00:28:52;;;;;;;;;;;2.30;73.00;;;;;;5013918;28;19963;-86
2023/03/12 00:31:21;;;;;;;;;;;2.30;73.20;;;;;;5032468;28;19928;-86
2023/03/12 00:33:48;;;;;;;;;;;2.30;72.60;;;;;;5019484;28;19949;-87
2023/03/12 00:36:15;;;;;;;;;;;2.30;72.80;;;;;;5034165;28;19921;-86
2023/03/12 00:38:41;;;;;;;;;;;2.40;72.30;;;;;;5029144;28;20288;-86
2023/03/12 00:41:06;;;;;;;;;;;2.50;72.50;;;;;;5014584;28;19916;-85
2023/03/12 00:43:32;;;;;;;;;;;2.40;72.20;;;;;;5015463;28;19993;-86
2023/03/12 00:45:57;;;;;;;;;;;2.50;72.00;;;;;;5014705;28;19921;-86
2023/03/12 00:48:24;;;;;;;;;;;2.40;72.10;;;;;;5032323;28;20027;-86
2023/03/12 00:50:49;;;;;;;;;;;2.50;72.40;;;;;;5030118;28;20370;-85
2023/03/12 00:53:15;;;;;;;;;;;2.50;72.90;;;;;;5015927;28;19921;-86
2023/03/12 00:55:40;;;;;;;;;;;2.60;72.10;;;;;;5013206;28;20024;-85
2023/03/12 00:58:05;;;;;;;;;;;2.60;71.30;;;;;;5032198;28;19925;-85
2023/03/12 01:00:31;;;;;;;;;;;2.60;71.30;;;;;;5010813;28;19914;-85
2023/03/12 01:02:57;;;;;;;;;;;2.70;71.40;;;;;;5032528;28;19971;-86
2023/03/12 01:05:22;;;;;;;;;;;2.70;71.50;;;;;;5014393;28;19928;-86
2023/03/12 01:07:48;;;;;;;;;;;2.70;71.00;;;;;;5015714;28;19962;-86
2023/03/12 01:10:15;;;;;;;;;;;2.60;70.00;;;;;;5013055;28;19913;-86
2023/03/12 01:12:41;;;;;;;;;;;2.70;70.60;;;;;;5029986;28;19914;-86
2023/03/12 01:15:07;;;;;;;;;;;2.70;70.80;;;;;;5009870;28;19913;-86
2023/03/12 01:17:32;;;;;;;;;;;2.70;70.50;;;;;;5029482;28;19913;-85
2023/03/12 01:19:58;;;;;;;;;;;2.60;69.90;;;;;;5031183;28;19921;-86
2023/03/12 01:22:23;;;;;;;;;;;2.70;71.10;;;;;;5031307;28;20020;-85
2023/03/12 01:24:48;;;;;;;;;;;2.70;69.70;;;;;;5031945;28;19940;-86
2023/03/12 01:27:14;;;;;;;;;;;2.70;70.80;;;;;;5006457;28;19914;-86
2023/03/12 01:29:39;;;;;;;;;;;2.60;70.80;;;;;;5031732;28;19913;-86
2023/03/12 01:32:05;;;;;;;;;;;2.60;70.60;;;;;;5030034;28;19913;-86
2023/03/12 01:34:32;;;;;;;;;;;2.60;70.40;;;;;;5013898;28;19917;-86
2023/03/12 01:36:58;;;;;;;;;;;2.60;69.50;;;;;;5033020;28;20028;-86
2023/03/12 01:39:24;;;;;;;;;;;2.60;69.00;;;;;;5031957;28;19971;-86
2023/03/12 01:41:50;;;;;;;;;;;2.60;70.00;;;;;;5030469;28;20286;-87
2023/03/12 01:44:15;;;;;;;;;;;2.60;69.90;;;;;;5031312;28;19921;-86
2023/03/12 01:46:42;;;;;;;;;;;2.60;69.10;;;;;;5032268;28;19914;-86
2023/03/12 01:49:08;;;;;;;;;;;2.70;69.50;;;;;;5032753;28;20402;-86
2023/03/12 01:51:40;;;;;;;;;;;2.70;69.10;;;;;;5016577;28;19919;-86
2023/03/12 01:54:09;;;;;;;;;;;2.80;69.90;;;;;;5029039;28;19914;-86
2023/03/12 01:56:35;;;;;;;;;;;2.80;69.80;;;;;;5035396;28;19911;-86
2023/03/12 01:59:04;;;;;;;;;;;2.90;70.00;;;;;;5054052;28;19967;-86
2023/03/12 02:01:29;;;;;;;;;;;2.90;70.40;;;;;;5033049;28;19914;-86
2023/03/12 02:03:57;;;;;;;;;;;3.10;69.30;;;;;;5037457;28;19901;-87
2023/03/12 02:06:29;;;;;;;;;;;3.00;68.30;;;;;;5054275;28;19913;-86
2023/03/12 02:08:55;;;;;;;;;;;3.00;68.00;;;;;;5035637;28;19917;-86
2023/03/12 02:11:21;;;;;;;;;;;2.90;68.30;;;;;;5030705;28;19921;-87
2023/03/12 02:13:46;;;;;;;;;;;3.00;68.60;;;;;;5020832;28;20024;-86
2023/03/12 02:16:12;;;;;;;;;;;3.00;68.50;;;;;;5027110;28;19972;-86
2023/03/12 02:18:37;;;;;;;;;;;2.90;69.10;;;;;;5031611;28;19909;-86
2023/03/12 02:21:09;;;;;;;;;;;3.00;67.90;;;;;;5029556;28;19917;-86
2023/03/12 02:23:41;;;;;;;;;;;3.00;67.80;;;;;;5030332;28;20012;-86
2023/03/12 02:26:08;;;;;;;;;;;3.00;68.40;;;;;;5028643;28;19921;-86
2023/03/12 02:28:41;;;;;;;;;;;3.00;67.20;;;;;;5031943;28;19909;-86
2023/03/12 02:31:07;;;;;;;;;;;3.00;67.20;;;;;;5030780;28;19917;-86
2023/03/12 02:33:33;;;;;;;;;;;3.00;67.80;;;;;;5035142;28;19913;-86
2023/03/12 02:35:58;;;;;;;;;;;3.00;67.10;;;;;;5026290;28;19917;-86
2023/03/12 02:38:30;;;;;;;;;;;3.00;67.40;;;;;;5031113;28;20371;-86
2023/03/12 02:40:57;;;;;;;;;;;3.00;68.20;;;;;;5034227;28;19960;-86
2023/03/12 02:43:22;;;;;;;;;;;3.10;68.40;;;;;;5032500;28;19920;-86
2023/03/12 02:45:48;;;;;;;;;;;3.30;67.10;;;;;;5034158;28;19921;-86
2023/03/12 02:48:13;;;;;;;;;;;3.30;66.80;;;;;;5033786;28;19913;-86
2023/03/12 02:50:39;;;;;;;;;;;3.20;67.20;;;;;;5032559;28;20008;-87
2023/03/12 02:53:04;;;;;;;;;;;3.30;67.90;;;;;;5035176;28;19936;-87
2023/03/12 02:55:30;;;;;;;;;;;3.20;67.60;;;;;;5033082;28;19917;-86
2023/03/12 02:57:55;;;;;;;;;;;3.20;66.50;;;;;;5032395;28;19921;-87
2023/03/12 03:00:21;;;;;;;;;;;3.10;65.60;;;;;;5031129;28;19940;-86
2023/03/12 03:02:46;;;;;;;;;;;3.20;66.90;;;;;;5004387;28;20386;-86
2023/03/12 03:05:12;;;;;;;;;;;3.20;66.70;;;;;;5015088;28;20398;-87
2023/03/12 03:07:37;;;;;;;;;;;3.30;66.40;;;;;;5011937;28;19948;-87
2023/03/12 03:10:04;;;;;;;;;;;3.30;65.90;;;;;;5029107;28;19963;-86
2023/03/12 03:12:30;;;;;;;;;;;3.20;67.50;;;;;;5014218;28;19913;-87
2023/03/12 03:14:55;;;;;;;;;;;3.20;67.10;;;;;;5033669;28;19917;-86
2023/03/12 03:17:23;;;;;;;;;;;3.40;66.80;;;;;;5016346;28;19912;-86
2023/03/12 03:19:49;;;;;;;;;;;3.30;67.50;;;;;;5055542;28;19980;-86
2023/03/12 03:22:14;;;;;;;;;;;3.30;68.00;;;;;;5027498;28;19955;-87
2023/03/12 03:24:40;;;;;;;;;;;3.30;66.70;;;;;;5016901;28;19917;-87
2023/03/12 03:27:05;;;;;;;;;;;3.40;66.00;;;;;;5033904;28;20318;-87
2023/03/12 03:29:31;;;;;;;;;;;3.30;66.40;;;;;;5008334;28;19917;-86
2023/03/12 03:31:56;;;;;;;;;;;3.10;67.40;;;;;;5017866;28;20333;-86
2023/03/12 03:34:22;;;;;;;;;;;3.00;67.30;;;;;;5044435;28;19909;-87
2023/03/12 03:36:48;;;;;;;;;;;2.90;67.80;;;;;;5036312;28;19924;-87
2023/03/12 03:39:13;;;;;;;;;;;2.90;68.50;;;;;;5031843;28;19905;-86
2023/03/12 03:41:39;;;;;;;;;;;3.00;68.40;;;;;;5040341;28;19897;-86
2023/03/12 03:44:06;;;;;;;;;;;2.90;67.90;;;;;;5017930;28;19971;-86
2023/03/12 03:46:34;;;;;;;;;;;2.90;68.00;;;;;;5019651;28;19917;-87
2023/03/12 03:48:59;;;;;;;;;;;3.00;67.50;;;;;;5036522;28;19983;-87
2023/03/12 03:51:25;;;;;;;;;;;2.90;68.10;;;;;;5038130;28;19967;-86
2023/03/12 03:53:50;;;;;;;;;;;2.90;68.00;;;;;;5017145;28;19913;-87
2023/03/12 03:56:16;;;;;;;;;;;2.90;68.30;;;;;;5019280;28;19921;-87
2023/03/12 03:58:41;;;;;;;;;;;2.90;68.00;;;;;;5028512;28;19924;-86
2023/03/12 04:01:07;;;;;;;;;;;3.10;67.90;;;;;;5035960;28;21024;-86
2023/03/12 04:03:33;;;;;;;;;;;3.10;68.00;;;;;;5028398;28;19996;-87
2023/03/12 04:06:00;;;;;;;;;;;3.20;68.10;;;;;;5036178;28;20267;-86
2023/03/12 04:08:25;;;;;;;;;;;3.10;67.50;;;;;;5044065;28;20918;-87
2023/03/12 04:10:51;;;;;;;;;;;3.10;67.60;;;;;;5043426;28;19913;-87
2023/03/12 04:13:16;;;;;;;;;;;3.10;67.90;;;;;;5027972;28;19935;-87
2023/03/12 04:15:48;;;;;;;;;;;3.30;67.00;;;;;;5033394;28;19920;-86
2023/03/12 04:18:14;;;;;;;;;;;3.30;66.60;;;;;;5033187;28;19917;-86
2023/03/12 04:20:39;;;;;;;;;;;3.30;66.40;;;;;;5035161;28;19916;-87
2023/03/12 04:23:05;;;;;;;;;;;3.20;66.80;;;;;;5031674;28;19921;-87
2023/03/12 04:25:30;;;;;;;;;;;3.20;67.10;;;;;;5033316;28;19928;-87
2023/03/12 04:27:56;;;;;;;;;;;3.20;68.30;;;;;;5033027;28;19943;-87
2023/03/12 04:30:21;;;;;;;;;;;3.10;66.70;;;;;;5034796;28;19924;-86
2023/03/12 04:32:47;;;;;;;;;;;3.20;67.90;;;;;;5033261;28;19920;-86
2023/03/12 04:35:12;;;;;;;;;;;3.20;66.70;;;;;;5038776;28;19920;-86
2023/03/12 04:37:38;;;;;;;;;;;3.20;66.40;;;;;;5034485;28;19944;-86
2023/03/12 04:40:06;;;;;;;;;;;3.20;66.40;;;;;;5042380;28;19902;-85
2023/03/12 04:42:33;;;;;;;;;;;3.20;66.50;;;;;;5048434;28;19967;-88
2023/03/12 04:44:58;;;;;;;;;;;3.30;67.00;;;;;;5032132;28;19917;-87
2023/03/12 04:47:24;;;;;;;;;;;3.40;66.20;;;;;;5032744;28;19928;-86
2023/03/12 04:49:49;;;;;;;;;;;3.50;65.30;;;;;;5028345;28;19914;-86
2023/03/12 04:52:16;;;;;;;;;;;3.50;65.40;;;;;;5031324;28;19944;-85
2023/03/12 04:54:42;;;;;;;;;;;3.50;65.30;;;;;;5029158;28;19989;-86
2023/03/12 04:57:08;;;;;;;;;;;3.50;65.80;;;;;;5033395;28;20354;-86
2023/03/12 04:59:33;;;;;;;;;;;3.40;65.50;;;;;;5027464;28;19924;-86
2023/03/12 05:01:58;;;;;;;;;;;3.50;65.50;;;;;;5018119;28;19959;-87
2023/03/12 05:04:24;;;;;;;;;;;3.40;65.60;;;;;;5016636;28;19920;-86
2023/03/12 05:06:49;;;;;;;;;;;3.30;66.50;;;;;;5034178;28;19951;-87
2023/03/12 05:09:15;;;;;;;;;;;3.40;67.00;;;;;;5041929;28;20398;-85
2023/03/12 05:11:40;;;;;;;;;;;3.30;66.20;;;;;;5030475;28;20324;-85
2023/03/12 05:14:06;;;;;;;;;;;3.40;66.40;;;;;;5008930;28;19940;-85
2023/03/12 05:16:31;;;;;;;;;;;3.40;65.90;;;;;;5032283;28;19913;-85
2023/03/12 05:18:57;;;;;;;;;;;3.50;65.50;;;;;;5016003;28;20004;-86
2023/03/12 05:21:22;;;;;;;;;;;3.60;65.80;;;;;;5031569;28;19913;-86
2023/03/12 05:23:48;;;;;;;;;;;3.60;65.20;;;;;;5028645;28;19972;-85
2023/03/12 05:26:31;;;;;;;;;;;3.60;65.90;;;;;;5030991;28;20784;-86
2023/03/12 05:28:58;;;;;;;;;;;3.60;66.20;;;;;;5032256;28;19922;-86
2023/03/12 05:31:23;;;;;;;;;;;3.50;66.10;;;;;;5013555;28;19936;-86
2023/03/12 05:33:49;;;;;;;;;;;3.60;66.00;;;;;;5029776;28;20394;-86
2023/03/12 05:36:15;;;;;;;;;;;3.60;66.40;;;;;;5033473;28;19921;-86
2023/03/12 05:38:41;;;;;;;;;;;3.50;66.20;;;;;;5033112;28;19913;-86
2023/03/12 05:41:08;;;;;;;;;;;3.60;66.50;;;;;;5013754;28;19920;-86
2023/03/12 05:43:33;;;;;;;;;;;3.70;65.60;;;;;;5013135;28;20011;-86
2023/03/12 05:45:59;;;;;;;;;;;3.70;64.60;;;;;;5029591;28;19984;-86
2023/03/12 05:48:25;;;;;;;;;;;3.60;64.80;;;;;;5028707;28;19913;-86
2023/03/12 05:50:51;;;;;;;;;;;3.60;65.90;;;;;;5031197;28;19921;-86
2023/03/12 05:53:16;;;;;;;;;;;3.60;66.30;;;;;;5029912;28;19917;-85
2023/03/12 05:55:42;;;;;;;;;;;3.60;66.00;;;;;;5024655;28;19932;-85
2023/03/12 05:58:08;;;;;;;;;;;3.60;66.60;;;;;;4647413;22;19936;-83
2023/03/12 06:00:37;;;;;;;;;;;3.60;66.20;;;;;;5025894;28;20290;-84
2023/03/12 06:03:04;;;;;;;;;;;3.60;67.00;;;;;;5029583;28;19923;-83
2023/03/12 06:05:30;;;;;;;;;;;3.80;66.80;;;;;;5022664;28;19971;-83
2023/03/12 06:07:55;;;;;;;;;;;3.80;66.10;;;;;;5031314;28;20012;-81
2023/03/12 06:10:21;;;;;;;;;;;4.00;66.10;;;;;;5036540;28;20035;-84
2023/03/12 06:12:46;;;;;;;;;;;4.00;65.60;;;;;;5033205;28;19921;-84
2023/03/12 06:15:11;;;;;;;;;;;3.90;65.60;;;;;;5036064;28;19917;-83
2023/03/12 06:17:37;;;;;;;;;;;3.80;65.80;;;;;;5029842;28;19920;-82
2023/03/12 06:20:03;;;;;;;;;;;3.80;66.40;;;;;;5031947;28;19913;-83
2023/03/12 06:22:28;;;;;;;;;;;3.80;67.00;;;;;;5034133;28;20331;-83
2023/03/12 06:24:54;;;;;;;;;;;3.80;66.70;;;;;;5045245;28;20398;-83
2023/03/12 06:27:19;;;;;;;;;;;3.80;66.80;;;;;;5040546;28;20274;-82
2023/03/12 06:29:47;;;;;;;;;;;3.80;67.30;;;;;;5043098;28;20377;-84
2023/03/12 06:32:13;;;;;;;;;;;3.80;67.40;;;;;;5033465;28;19913;-84
2023/03/12 06:34:39;;;;;;;;;;;3.90;67.80;;;;;;5035229;28;19920;-84
2023/03/12 06:37:04;;;;;;;;;;;4.00;67.60;;;;;;5061642;28;19926;-81
2023/03/12 06:39:30;;;;;;;;;;;4.00;67.70;;;;;;5053872;28;19972;-81
2023/03/12 06:41:55;;;;;;;;;;;4.00;68.10;;;;;;5050541;28;20150;-81
2023/03/12 06:44:21;;;;;;;;;;;3.90;68.80;;;;;;5053779;28;19923;-83
2023/03/12 06:46:46;;;;;;;;;;;3.90;69.10;;;;;;5046535;28;20301;-82
2023/03/12 06:49:12;;;;;;;;;;;4.00;69.40;;;;;;5051152;28;19913;-85
2023/03/12 06:51:37;;;;;;;;;;;3.90;69.00;;;;;;5043506;28;19925;-84
2023/03/12 06:54:03;;;;;;;;;;;3.80;69.70;;;;;;5035730;28;19914;-84
2023/03/12 06:56:29;;;;;;;;;;;3.90;70.20;;;;;;5045199;28;19913;-84
2023/03/12 06:58:55;;;;;;;;;;;4.00;69.40;;;;;;5043935;28;19956;-83
2023/03/12 07:01:20;;;;;;;;;;;4.00;69.70;;;;;;5051748;28;19905;-82
2023/03/12 07:03:46;;;;;;;;;;;4.20;68.70;;;;;;5052332;28;19908;-82
2023/03/12 07:06:13;;;;;;;;;;;4.20;68.90;;;;;;5044653;28;19992;-83
2023/03/12 07:08:38;;;;;;;;;;;4.30;68.20;;;;;;5038597;28;20255;-84
2023/03/12 07:11:04;;;;;;;;;;;4.30;68.90;;;;;;5044331;28;19935;-84
2023/03/12 07:13:30;;;;;;;;;;;4.10;69.90;;;;;;5032474;28;19913;-84
2023/03/12 07:15:55;;;;;;;;;;;4.00;71.20;;;;;;5036672;28;19916;-82
2023/03/12 07:18:21;;;;;;;;;;;4.10;70.60;;;;;;5035019;28;19916;-83
2023/03/12 07:20:46;;;;;;;;;;;4.10;70.90;;;;;;5039607;28;19912;-82
2023/03/12 07:23:12;;;;;;;;;;;4.00;71.30;;;;;;5032614;28;20390;-82
2023/03/12 07:25:38;;;;;;;;;;;4.00;71.60;;;;;;5051700;28;19913;-84
2023/03/12 07:28:04;;;;;;;;;;;4.00;72.40;;;;;;5035216;28;20007;-81
2023/03/12 07:30:32;;;;;;;;;;;4.00;73.10;;;;;;5047345;28;19971;-83
2023/03/12 07:33:01;;;;;;;;;;;4.20;72.70;;;;;;5024219;28;19923;-82
2023/03/12 07:35:26;;;;;;;;;;;4.20;72.60;;;;;;5029491;28;19959;-83
2023/03/12 07:37:52;;;;;;;;;;;4.20;73.10;;;;;;5033692;28;19913;-82
2023/03/12 07:40:17;;;;;;;;;;;4.20;73.10;;;;;;5039652;28;19940;-84
2023/03/12 07:42:43;;;;;;;;;;;4.20;74.10;;;;;;5029724;28;20405;-84
2023/03/12 07:45:09;;;;;;;;;;;4.20;74.70;;;;;;5032637;28;19917;-86
2023/03/12 07:47:34;;;;;;;;;;;4.20;75.00;;;;;;5029868;28;20362;-88
2023/03/12 07:50:00;;;;;;;;;;;4.20;76.00;;;;;;5031584;28;19924;-88
2023/03/12 07:52:26;;;;;;;;;;;4.30;76.10;;;;;;5026585;28;19929;-87
2023/03/12 07:54:53;;;;;;;;;;;4.20;77.20;;;;;;5027424;28;19921;-86
2023/03/12 07:57:18;;;;;;;;;;;4.20;78.00;;;;;;5033307;28;19929;-85
2023/03/12 07:59:45;;;;;;;;;;;4.20;78.20;;;;;;5023800;28;19921;-85
2023/03/12 08:02:11;;;;;;;;;;;4.30;78.90;;;;;;5037716;28;19913;-86
2023/03/12 08:04:36;;;;;;;;;;;4.20;78.80;;;;;;5027837;28;19913;-89
2023/03/12 08:07:02;;;;;;;;;;;4.30;79.40;;;;;;5034906;28;20574;-86
2023/03/12 08:09:28;;;;;;;;;;;4.40;79.30;;;;;;5035655;28;19920;-84
2023/03/12 08:11:53;;;;;;;;;;;4.50;79.00;;;;;;5038617;28;19920;-86
2023/03/12 08:14:19;;;;;;;;;;;4.30;80.10;;;;;;5030920;28;19917;-87
2023/03/12 08:16:44;;;;;;;;;;;4.30;80.50;;;;;;5023667;28;20359;-87
2023/03/12 08:19:10;;;;;;;;;;;4.20;81.00;;;;;;5024047;28;19913;-88
2023/03/12 08:21:36;;;;;;;;;;;4.20;81.10;;;;;;5018165;28;19936;-86
2023/03/12 08:24:01;;;;;;;;;;;4.30;81.60;;;;;;5031759;28;19920;-86
2023/03/12 08:26:27;;;;;;;;;;;4.40;81.00;;;;;;5027305;28;19928;-86
2023/03/12 08:28:52;;;;;;;;;;;4.50;81.40;;;;;;5028950;28;19913;-86
2023/03/12 08:31:18;;;;;;;;;;;4.60;81.30;;;;;;5041557;28;19924;-87
2023/03/12 08:33:45;;;;;;;;;;;4.60;81.50;;;;;;5029502;28;19971;-88
2023/03/12 08:36:11;;;;;;;;;;;4.60;81.70;;;;;;5021154;28;19917;-86
2023/03/12 08:38:36;;;;;;;;;;;4.70;81.30;;;;;;5025468;28;19913;-85
2023/03/12 08:41:02;;;;;;;;;;;4.70;80.90;;;;;;5036839;28;19944;-83
2023/03/12 08:43:27;;;;;;;;;;;4.90;81.20;;;;;;5032697;28;19917;-86
2023/03/12 08:45:57;;;;;;;;;;;4.90;81.10;;;;;;5034384;28;19921;-87
2023/03/12 08:48:22;;;;;;;;;;;5.00;80.80;;;;;;5022103;28;20040;-85
2023/03/12 08:50:48;;;;;;;;;;;5.10;80.50;;;;;;5045822;28;19913;-84
2023/03/12 08:53:14;;;;;;;;;;;5.00;80.70;;;;;;5021472;28;19914;-87
2023/03/12 08:55:39;;;;;;;;;;;4.90;80.80;;;;;;5028241;28;19913;-85
2023/03/12 08:58:05;;;;;;;;;;;4.80;81.30;;;;;;5033216;28;20007;-85
2023/03/12 09:00:30;;;;;;;;;;;4.80;81.50;;;;;;5025818;28;19936;-87
2023/03/12 09:02:57;;;;;;;;;;;4.90;81.60;;;;;;5021341;28;19913;-85
2023/03/12 09:05:28;;;;;;;;;;;5.00;81.80;;;;;;5031545;28;19924;-86
2023/03/12 09:07:54;;;;;;;;;;;5.10;81.80;;;;;;5023249;28;19931;-86
2023/03/12 09:10:20;;;;;;;;;;;5.10;81.50;;;;;;5024268;28;20371;-85
2023/03/12 09:12:45;;;;;;;;;;;5.10;81.70;;;;;;5027770;28;19917;-85
2023/03/12 09:15:11;;;;;;;;;;;5.20;82.00;;;;;;5028241;28;19913;-85
2023/03/12 09:17:36;;;;;;;;;;;5.40;81.90;;;;;;5022006;28;20246;-85
2023/03/12 09:20:06;;;;;;;;;;;5.50;81.60;;;;;;5029507;28;19913;-88
2023/03/12 09:22:31;;;;;;;;;;;5.60;81.90;;;;;;5022438;28;20027;-86
2023/03/12 09:24:57;;;;;;;;;;;5.60;82.10;;;;;;5015424;28;20316;-88
2023/03/12 09:27:22;;;;;;;;;;;5.70;82.50;;;;;;5031865;28;20579;-88
2023/03/12 09:29:50;;;;;;;;;;;5.80;82.10;;;;;;5045350;28;19921;-87
2023/03/12 09:32:15;;;;;;;;;;;5.90;81.70;;;;;;5046198;28;19923;-84
2023/03/12 09:34:41;;;;;;;;;;;5.90;81.70;;;;;;5041056;28;19912;-87
2023/03/12 09:37:10;;;;;;;;;;;5.90;82.20;;;;;;5032211;28;19909;-87
2023/03/12 09:39:35;;;;;;;;;;;5.80;82.20;;;;;;5038745;28;19947;-88
2023/03/12 09:42:02;;;;;;;;;;;5.70;82.20;;;;;;5029399;28;19913;-88
2023/03/12 09:44:27;;;;;;;;;;;5.70;82.30;;;;;;5034817;28;19913;-87
2023/03/12 09:46:55;;;;;;;;;;;5.60;82.80;;;;;;5033458;28;19921;-87
2023/03/12 09:49:36;;;;;;;;;;;5.80;82.90;;;;;;5041933;28;19949;-85
2023/03/12 09:52:02;;;;;;;;;;;5.60;83.00;;;;;;5053814;28;19916;-84
2023/03/12 09:54:35;;;;;;;;;;;5.60;83.50;;;;;;5047663;28;19917;-87
2023/03/12 09:57:02;;;;;;;;;;;5.60;83.60;;;;;;5022084;28;19919;-86
2023/03/12 09:59:28;;;;;;;;;;;5.50;84.20;;;;;;5036900;28;19928;-85
2023/03/12 10:01:56;;;;;;;;;;;5.50;84.50;;;;;;5027655;28;19921;-87
2023/03/12 10:04:27;;;;;;;;;;;5.60;84.60;;;;;;5028294;28;19948;-85
2023/03/12 10:07:12;;;;;;;;;;;5.50;85.00;;;;;;5054342;28;19913;-86
2023/03/12 10:09:47;;;;;;;;;;;5.50;85.00;;;;;;5054105;28;19917;-85
2023/03/12 10:12:25;;;;;;;;;;;5.40;85.50;;;;;;5055011;28;19990;-86
2023/03/12 10:14:56;;;;;;;;;;;5.50;85.80;;;;;;5031927;28;19913;-85
2023/03/12 10:17:37;;;;;;;;;;;5.50;86.30;;;;;;5032432;28;20363;-85
2023/03/12 10:20:21;;;;;;;;;;;5.50;86.80;;;;;;5030881;28;19921;-85
2023/03/12 10:22:46;;;;;;;;;;;5.60;87.10;;;;;;5031743;28;19920;-86
2023/03/12 10:25:19;;;;;;;;;;;5.60;87.20;;;;;;5033508;28;20279;-86
2023/03/12 10:27:46;;;;;;;;;;;5.70;87.60;;;;;;5030016;28;19917;-86
2023/03/12 10:30:15;;;;;;;;;;;5.60;88.20;;;;;;5033304;28;20031;-87
2023/03/12 10:32:43;;;;;;;;;;;5.60;88.80;;;;;;5032203;28;19924;-84
2023/03/12 10:35:13;;;;;;;;;;;5.70;89.10;;;;;;5033643;28;19921;-85
2023/03/12 10:37:49;;;;;;;;;;;5.80;89.40;;;;;;5024343;28;19983;-85
2023/03/12 10:40:16;;;;;;;;;;;5.70;89.70;;;;;;5049422;28;19952;-86
2023/03/12 10:42:41;;;;;;;;;;;5.80;90.00;;;;;;5032296;28;19917;-86
2023/03/12 10:45:10;;;;;;;;;;;5.90;90.10;;;;;;5024963;28;19929;-86
2023/03/12 10:47:36;;;;;;;;;;;5.90;90.00;;;;;;5028693;28;19914;-86
2023/03/12 10:50:22;;;;;;;;;;;6.00;90.30;;;;;;5033390;28;19992;-85
2023/03/12 10:52:49;;;;;;;;;;;6.00;90.30;;;;;;5029284;28;20362;-87
2023/03/12 10:55:18;;;;;;;;;;;6.00;90.20;;;;;;5034888;28;19920;-87
2023/03/12 10:57:43;;;;;;;;;;;6.10;90.40;;;;;;5036149;28;19920;-87
2023/03/12 11:00:16;;;;;;;;;;;6.20;90.30;;;;;;5028643;28;19913;-87
2023/03/12 11:02:45;;;;;;;;;;;6.30;90.30;;;;;;5030875;28;20370;-84
2023/03/12 11:05:19;;;;;;;;;;;6.40;90.10;;;;;;5034997;28;19917;-84
2023/03/12 11:07:44;;;;;;;;;;;6.40;89.90;;;;;;5043516;28;19909;-83
2023/03/12 11:10:10;;;;;;;;;;;6.40;90.10;;;;;;5034995;28;19911;-82
2023/03/12 11:12:36;;;;;;;;;;;6.60;89.90;;;;;;5035181;28;19935;-85
2023/03/12 11:15:19;;;;;;;;;;;6.60;90.00;;;;;;5034129;28;19917;-84
2023/03/12 11:17:45;;;;;;;;;;;6.60;89.70;;;;;;5028610;28;20501;-84
2023/03/12 11:20:20;;;;;;;;;;;6.60;89.90;;;;;;5035757;28;19917;-85
2023/03/12 11:22:45;;;;;;;;;;;6.60;90.10;;;;;;5032467;28;19917;-84
2023/03/12 11:25:19;;;;;;;;;;;6.60;90.00;;;;;;5035730;28;19913;-86
2023/03/12 11:27:47;;;;;;;;;;;6.60;90.30;;;;;;5041354;28;19948;-85
2023/03/12 11:30:16;;;;;;;;;;;6.70;90.50;;;;;;5039940;28;19920;-85
2023/03/12 11:32:46;;;;;;;;;;;6.70;90.50;;;;;;5031558;28;19913;-84
2023/03/12 11:35:13;;;;;;;;;;;6.60;90.60;;;;;;5031902;28;19909;-85
2023/03/12 11:37:41;;;;;;;;;;;6.60;90.70;;;;;;5030590;28;19913;-85
2023/03/12 11:40:16;;;;;;;;;;;6.70;90.90;;;;;;5033480;28;20010;-85
2023/03/12 11:43:02;;;;;;;;;;;6.80;90.80;;;;;;5030899;28;19956;-86
2023/03/12 11:45:39;;;;;;;;;;;6.90;90.70;;;;;;5005854;28;19984;-86
2023/03/12 11:48:21;;;;;;;;;;;6.90;90.70;;;;;;5035587;28;19913;-85
2023/03/12 11:51:08;;;;;;;;;;;6.90;90.80;;;;;;5028051;28;19898;-86
2023/03/12 11:53:40;;;;;;;;;;;6.90;90.80;;;;;;5039845;28;19913;-87
2023/03/12 11:56:08;;;;;;;;;;;7.00;90.80;;;;;;5031724;28;19997;-89
2023/03/12 12:01:17;;;;;;;;;;;7.20;90.80;;;;;;5018391;28;19929;-77
2023/03/12 12:03:45;;;;;;;;;;;7.20;90.70;;;;;;5037093;28;20008;-75
2023/03/12 12:06:14;;;;;;;;;;;7.30;90.80;;;;;;5043831;28;19928;-77
2023/03/12 12:08:56;;;;;;;;;;;7.40;90.90;;;;;;5049347;28;19916;-77
2023/03/12 12:11:25;;;;;;;;;;;7.50;90.70;;;;;;5042791;28;19920;-80
2023/03/12 12:13:56;;;;;;;;;;;7.50;90.60;;;;;;5047053;28;19917;-79
2023/03/12 12:16:22;;;;;;;;;;;7.60;90.70;;;;;;5040413;28;19963;-81
2023/03/12 12:18:58;;;;;;;;;;;7.70;90.50;;;;;;5051847;28;20346;-81
2023/03/12 12:21:26;;;;;;;;;;;7.60;90.40;;;;;;5020302;28;20008;-76
2023/03/12 12:24:03;;;;;;;;;;;7.70;90.50;;;;;;5023210;28;19975;-87
2023/03/12 12:26:36;;;;;;;;;;;7.70;90.50;;;;;;5028165;28;19967;-86
2023/03/12 12:29:21;;;;;;;;;;;7.90;90.30;;;;;;5029327;28;19914;-88
2023/03/12 12:31:56;;;;;;;;;;;8.00;90.20;;;;;;5030922;28;19990;-88
2023/03/12 12:34:34;;;;;;;;;;;8.10;90.10;;;;;;5031738;28;20326;-88
2023/03/12 12:37:18;;;;;;;;;;;8.10;90.10;;;;;;5035205;28;19917;-85
2023/03/12 12:39:58;;;;;;;;;;;8.10;89.90;;;;;;5029905;28;19993;-87
2023/03/12 12:42:30;;;;;;;;;;;8.20;89.90;;;;;;5028481;28;19960;-86
2023/03/12 12:44:57;;;;;;;;;;;8.30;89.90;;;;;;5022461;28;20368;-85
2023/03/12 12:47:31;;;;;;;;;;;8.40;89.70;;;;;;5032606;28;19984;-87
2023/03/12 12:49:57;;;;;;;;;;;8.40;89.60;;;;;;5033736;28;19913;-85
2023/03/12 12:52:26;;;;;;;;;;;8.50;89.60;;;;;;5035388;28;19941;-85
2023/03/12 12:55:14;;;;;;;;;;;8.60;89.50;;;;;;5036550;28;20391;-85
2023/03/12 12:57:59;;;;;;;;;;;8.60;89.30;;;;;;5032315;28;20008;-86
2023/03/12 13:00:24;;;;;;;;;;;8.80;89.10;;;;;;5033006;28;19925;-87
2023/03/12 13:02:50;;;;;;;;;;;8.80;89.00;;;;;;5050164;28;20059;-85
2023/03/12 13:05:21;;;;;;;;;;;8.70;89.20;;;;;;5038331;28;19928;-86
2023/03/12 13:07:47;;;;;;;;;;;8.70;89.30;;;;;;5040798;28;19936;-87
2023/03/12 13:10:32;;;;;;;;;;;8.70;89.30;;;;;;5038716;28;20400;-87
2023/03/12 13:12:59;;;;;;;;;;;8.60;89.50;;;;;;5033731;28;20000;-86
2023/03/12 13:15:28;;;;;;;;;;;8.70;89.50;;;;;;5026971;28;19936;-87
2023/03/12 13:17:53;;;;;;;;;;;8.80;89.90;;;;;;5037636;28;20011;-84
2023/03/12 13:20:20;;;;;;;;;;;8.80;89.50;;;;;;5036187;28;21510;-86
2023/03/12 13:22:51;;;;;;;;;;;9.00;89.60;;;;;;5034108;28;19914;-85
2023/03/12 13:25:23;;;;;;;;;;;9.10;89.40;;;;;;5030795;28;19924;-87
2023/03/12 13:27:56;;;;;;;;;;;9.30;89.00;;;;;;5033650;28;19922;-86
2023/03/12 13:30:45;;;;;;;;;;;9.30;88.70;;;;;;5027578;28;20059;-86
2023/03/12 13:33:13;;;;;;;;;;;9.40;88.70;;;;;;5019447;28;19913;-84
2023/03/12 13:35:38;;;;;;;;;;;9.40;88.60;;;;;;5029271;28;20018;-84
2023/03/12 13:38:05;;;;;;;;;;;9.50;88.60;;;;;;5027773;28;20395;-85
2023/03/12 13:40:30;;;;;;;;;;;9.50;88.60;;;;;;5027423;28;19913;-82
2023/03/12 13:43:10;;;;;;;;;;;9.60;88.30;;;;;;5030603;28;19920;-81
2023/03/12 13:45:58;;;;;;;;;;;9.60;88.30;;;;;;5036785;28;19917;-82
2023/03/12 13:48:24;;;;;;;;;;;9.70;88.00;;;;;;5031381;28;19956;-80
2023/03/12 13:50:52;;;;;;;;;;;9.80;87.90;;;;;;5038917;28;19912;-81
2023/03/12 13:53:25;;;;;;;;;;;9.90;87.80;;;;;;5042427;28;19913;-83
2023/03/12 13:56:10;;;;;;;;;;;9.90;87.60;;;;;;5028945;28;19921;-82
2023/03/12 13:58:40;;;;;;;;;;;9.90;87.40;;;;;;5031495;28;19913;-82
2023/03/12 14:01:13;;;;;;;;;;;10.10;87.30;;;;;;5031607;28;20874;-83
2023/03/12 14:03:46;;;;;;;;;;;10.20;86.90;;;;;;5030917;28;20468;-82
2023/03/12 14:06:19;;;;;;;;;;;10.30;86.60;;;;;;5022738;28;19932;-82
2023/03/12 14:08:53;;;;;;;;;;;10.40;86.00;;;;;;5043752;28;19924;-82
2023/03/12 14:11:19;;;;;;;;;;;10.50;86.20;;;;;;5031768;28;19909;-80
2023/03/12 14:14:03;;;;;;;;;;;10.50;86.10;;;;;;5030283;28;20414;-81
2023/03/12 14:16:40;;;;;;;;;;;10.50;85.90;;;;;;5031980;28;19913;-82
2023/03/12 14:19:11;;;;;;;;;;;10.60;85.80;;;;;;5030883;28;20291;-82
2023/03/12 14:21:38;;;;;;;;;;;10.60;85.30;;;;;;5026294;28;19917;-87
2023/03/12 14:24:05;;;;;;;;;;;10.80;84.70;;;;;;5020217;28;19972;-88
2023/03/12 14:26:31;;;;;;;;;;;10.70;84.90;;;;;;5020405;28;19928;-84
2023/03/12 14:36:45;;;;;;;;;;;10.70;85.00;;;;;;3169412;22;20413;-89
2023/03/12 14:39:27;;;;;;;;;;;10.60;85.40;;;;;;4997090;28;20104;-86
2023/03/12 14:41:59;;;;;;;;;;;10.60;85.40;;;;;;4993458;28;19913;-88
2023/03/12 14:44:31;;;;;;;;;;;10.60;85.30;;;;;;4992124;28;19914;-92